createdAt,value
2018-04-17T00:00:09.736Z,1017.17
2018-04-17T00:01:10.205Z,1017.18
2018-04-17T00:03:06.166Z,1017.24
2018-04-17T00:04:05.630Z,1017.22
2018-04-17T00:06:01.591Z,1017.25
2018-04-17T00:07:01.566Z,1017.26
2018-04-17T00:08:57.476Z,1017.21
2018-04-17T00:09:58.021Z,1017.23
2018-04-17T00:11:53.975Z,1017.20
2018-04-17T00:12:53.400Z,1017.23
2018-04-17T00:14:49.880Z,1017.22
2018-04-17T00:15:49.356Z,1017.20
2018-04-17T00:17:45.802Z,1017.21
2018-04-17T00:18:45.806Z,1017.21
2018-04-17T00:20:41.248Z,1017.23
2018-04-17T00:21:41.210Z,1017.24
2018-04-17T00:23:37.661Z,1017.25
2018-04-17T00:24:37.138Z,1017.27
2018-04-17T00:26:33.594Z,1017.23
2018-04-17T00:27:33.609Z,1017.22
2018-04-17T00:29:30.032Z,1017.21
2018-04-17T00:30:28.995Z,1017.19
2018-04-17T00:32:26.033Z,1017.23
2018-04-17T00:33:25.940Z,1017.22
2018-04-17T00:35:22.403Z,1017.25
2018-04-17T00:36:22.415Z,1017.27
2018-04-17T00:38:17.872Z,1017.31
2018-04-17T00:39:17.849Z,1017.26
2018-04-17T00:41:14.309Z,1017.27
2018-04-17T00:42:13.793Z,1017.34
2018-04-17T00:44:09.777Z,1017.33
2018-04-17T00:45:09.755Z,1017.35
2018-04-17T00:47:06.676Z,1017.37
2018-04-17T00:48:05.645Z,1017.35
2018-04-17T00:50:01.639Z,1017.35
2018-04-17T00:51:01.598Z,1017.41
2018-04-17T00:52:58.060Z,1017.39
2018-04-17T00:53:57.536Z,1017.42
2018-04-17T00:55:53.981Z,1017.41
2018-04-17T00:56:54.993Z,1017.40
2018-04-17T00:58:49.475Z,1017.40
2018-04-17T00:59:49.394Z,1017.41
2018-04-17T01:01:45.349Z,1017.43
2018-04-17T01:02:45.844Z,1017.45
2018-04-17T01:04:41.801Z,1017.37
2018-04-17T01:05:42.223Z,1017.41
2018-04-17T01:07:38.260Z,1017.43
2018-04-17T01:08:38.737Z,1017.45
2018-04-17T01:10:34.188Z,1017.44
2018-04-17T01:11:34.182Z,1017.45
2018-04-17T01:13:30.624Z,1017.45
2018-04-17T01:14:30.136Z,1017.47
2018-04-17T01:16:26.117Z,1017.51
2018-04-17T01:17:26.071Z,1017.52
2018-04-17T01:19:22.029Z,1017.49
2018-04-17T01:20:23.528Z,1017.53
2018-04-17T01:22:18.467Z,1017.54
2018-04-17T01:23:18.444Z,1017.56
2018-04-17T01:25:13.888Z,1017.59
2018-04-17T01:26:13.877Z,1017.59
2018-04-17T01:28:09.836Z,1017.58
2018-04-17T01:29:09.815Z,1017.60
2018-04-17T01:31:06.777Z,1017.62
2018-04-17T01:32:05.753Z,1017.61
2018-04-17T01:34:02.231Z,1017.60
2018-04-17T01:35:02.223Z,1017.61
2018-04-17T01:36:57.640Z,1017.64
2018-04-17T01:37:57.648Z,1017.67
2018-04-17T01:39:53.624Z,1017.67
2018-04-17T01:40:53.582Z,1017.67
2018-04-17T01:42:49.543Z,1017.69
2018-04-17T01:43:50.039Z,1017.70
2018-04-17T01:45:46.003Z,1017.72
2018-04-17T01:46:45.990Z,1017.72
2018-04-17T01:48:42.406Z,1017.73
2018-04-17T01:49:42.838Z,1017.71
2018-04-17T01:51:37.336Z,1017.73
2018-04-17T01:52:37.308Z,1017.77
2018-04-17T01:54:34.253Z,1017.76
2018-04-17T01:55:33.234Z,1017.81
2018-04-17T01:57:29.706Z,1017.84
2018-04-17T01:58:29.681Z,1017.83
2018-04-17T02:00:27.629Z,1017.87
2018-04-17T02:01:27.134Z,1017.84
2018-04-17T02:03:24.090Z,1017.88
2018-04-17T02:04:23.059Z,1017.93
2018-04-17T02:06:19.037Z,1017.93
2018-04-17T02:07:19.006Z,1017.94
2018-04-17T02:09:15.465Z,1017.94
2018-04-17T02:10:14.895Z,1017.91
2018-04-17T02:12:10.860Z,1017.89
2018-04-17T02:13:10.858Z,1017.93
2018-04-17T02:15:08.301Z,1017.95
2018-04-17T02:16:06.762Z,1018.01
2018-04-17T02:18:02.739Z,1017.98
2018-04-17T02:19:02.737Z,1018.04
2018-04-17T02:20:59.168Z,1018.06
2018-04-17T02:21:58.657Z,1018.05
2018-04-17T02:23:55.608Z,1018.05
2018-04-17T02:24:54.590Z,1018.08
2018-04-17T02:26:51.536Z,1018.09
2018-04-17T02:27:50.538Z,1018.14
2018-04-17T02:29:46.553Z,1018.16
2018-04-17T02:30:47.988Z,1018.17
2018-04-17T02:32:42.956Z,1018.17
2018-04-17T02:33:42.401Z,1018.19
2018-04-17T02:35:38.887Z,1018.21
2018-04-17T02:36:38.343Z,1018.21
2018-04-17T02:38:45.332Z,1018.23
2018-04-17T02:39:45.331Z,1018.26
2018-04-17T02:41:42.285Z,1018.24
2018-04-17T02:42:41.258Z,1018.23
2018-04-17T02:44:37.716Z,1018.24
2018-04-17T02:45:38.709Z,1018.22
2018-04-17T02:47:33.742Z,1018.27
2018-04-17T02:48:33.140Z,1018.28
2018-04-17T02:50:29.059Z,1018.34
2018-04-17T02:51:29.073Z,1018.28
2018-04-17T02:53:25.025Z,1018.31
2018-04-17T02:54:25.004Z,1018.31
2018-04-17T02:56:21.465Z,1018.28
2018-04-17T02:57:20.944Z,1018.30
2018-04-17T02:59:16.921Z,1018.31
2018-04-17T03:00:16.829Z,1018.30
2018-04-17T03:02:12.783Z,1018.36
2018-04-17T03:03:12.759Z,1018.35
2018-04-17T03:05:09.225Z,1018.34
2018-04-17T03:06:08.694Z,1018.33
2018-04-17T03:08:05.664Z,1018.31
2018-04-17T03:09:05.154Z,1018.34
2018-04-17T03:11:01.094Z,1018.31
2018-04-17T03:12:00.571Z,1018.30
2018-04-17T03:13:57.039Z,1018.30
2018-04-17T03:14:57.030Z,1018.30
2018-04-17T03:16:54.474Z,1018.30
2018-04-17T03:17:52.969Z,1018.29
2018-04-17T03:19:50.424Z,1018.34
2018-04-17T03:20:50.393Z,1018.33
2018-04-17T03:22:46.365Z,1018.38
2018-04-17T03:23:46.855Z,1018.32
2018-04-17T03:25:43.777Z,1018.36
2018-04-17T03:26:42.282Z,1018.35
2018-04-17T03:28:38.220Z,1018.38
2018-04-17T03:29:38.184Z,1018.38
2018-04-17T03:31:34.671Z,1018.35
2018-04-17T03:32:34.141Z,1018.34
2018-04-17T03:34:30.130Z,1018.35
2018-04-17T03:35:30.574Z,1018.37
2018-04-17T03:37:27.029Z,1018.39
2018-04-17T03:38:25.980Z,1018.30
2018-04-17T03:40:23.441Z,1018.33
2018-04-17T03:41:21.913Z,1018.33
2018-04-17T03:43:18.377Z,1018.36
2018-04-17T03:44:17.845Z,1018.35
2018-04-17T03:46:14.726Z,1018.30
2018-04-17T03:47:13.790Z,1018.31
2018-04-17T03:49:10.266Z,1018.29
2018-04-17T03:50:10.242Z,1018.32
2018-04-17T03:52:06.145Z,1018.33
2018-04-17T03:53:05.622Z,1018.33
2018-04-17T03:55:01.568Z,1018.33
2018-04-17T03:56:01.562Z,1018.29
2018-04-17T03:57:57.504Z,1018.29
2018-04-17T03:58:59.044Z,1018.28
2018-04-17T04:00:53.948Z,1018.29
2018-04-17T04:01:53.450Z,1018.28
2018-04-17T04:03:49.378Z,1018.27
2018-04-17T04:04:49.382Z,1018.29
2018-04-17T04:06:47.868Z,1018.32
2018-04-17T04:07:48.347Z,1018.34
2018-04-17T04:09:43.436Z,1018.35
2018-04-17T04:10:43.910Z,1018.35
2018-04-17T04:12:39.352Z,1018.39
2018-04-17T04:13:39.350Z,1018.43
2018-04-17T04:15:35.303Z,1018.42
2018-04-17T04:16:35.265Z,1018.41
2018-04-17T04:18:31.243Z,1018.38
2018-04-17T04:19:32.210Z,1018.43
2018-04-17T04:21:27.706Z,1018.43
2018-04-17T04:22:28.601Z,1018.44
2018-04-17T04:24:23.138Z,1018.46
2018-04-17T04:25:23.088Z,1018.46
2018-04-17T04:27:20.043Z,1018.46
2018-04-17T04:28:19.541Z,1018.47
2018-04-17T04:30:15.482Z,1018.48
2018-04-17T04:31:14.965Z,1018.56
2018-04-17T04:33:11.476Z,1018.61
2018-04-17T04:34:10.901Z,1018.60
2018-04-17T04:36:07.351Z,1018.65
2018-04-17T04:37:06.850Z,1018.61
2018-04-17T04:39:04.227Z,1018.63
2018-04-17T04:40:03.310Z,1018.63
2018-04-17T04:41:58.672Z,1018.65
2018-04-17T04:42:58.678Z,1018.68
2018-04-17T04:44:55.169Z,1018.65
2018-04-17T04:45:54.621Z,1018.71
2018-04-17T04:47:51.592Z,1018.73
2018-04-17T04:48:51.086Z,1018.74
2018-04-17T04:50:46.549Z,1018.79
2018-04-17T04:51:47.039Z,1018.75
2018-04-17T04:53:42.465Z,1018.77
2018-04-17T04:54:42.968Z,1018.79
2018-04-17T04:56:39.387Z,1018.80
2018-04-17T04:57:38.417Z,1018.83
2018-04-17T04:59:34.382Z,1018.84
2018-04-17T05:00:34.259Z,1018.86
2018-04-17T05:02:31.715Z,1018.90
2018-04-17T05:03:30.711Z,1018.93
2018-04-17T05:05:26.676Z,1018.92
2018-04-17T05:06:27.679Z,1018.96
2018-04-17T05:08:23.087Z,1018.96
2018-04-17T05:09:22.071Z,1018.96
2018-04-17T05:11:19.041Z,1018.99
2018-04-17T05:12:18.027Z,1019.04
2018-04-17T05:14:15.979Z,1019.04
2018-04-17T05:15:16.500Z,1019.07
2018-04-17T05:17:11.419Z,1019.10
2018-04-17T05:18:10.910Z,1019.13
2018-04-17T05:20:06.885Z,1019.15
2018-04-17T05:21:06.853Z,1019.17
2018-04-17T05:23:02.800Z,1019.20
2018-04-17T05:24:02.791Z,1019.21
2018-04-17T05:25:58.749Z,1019.26
2018-04-17T05:26:58.738Z,1019.27
2018-04-17T05:28:56.121Z,1019.30
2018-04-17T05:29:54.644Z,1019.34
2018-04-17T05:31:51.113Z,1019.40
2018-04-17T05:32:50.591Z,1019.43
2018-04-17T05:34:45.983Z,1019.42
2018-04-17T05:35:45.025Z,1019.42
2018-04-17T05:37:40.961Z,1019.51
2018-04-17T05:38:41.467Z,1019.54
2018-04-17T05:40:36.937Z,1019.60
2018-04-17T05:41:36.904Z,1019.62
2018-04-17T05:43:33.369Z,1019.69
2018-04-17T05:44:32.839Z,1019.70
2018-04-17T05:46:29.808Z,1019.79
2018-04-17T05:47:29.291Z,1019.82
2018-04-17T05:49:25.262Z,1019.87
2018-04-17T05:50:25.238Z,1019.88
2018-04-17T05:52:20.638Z,1019.87
2018-04-17T05:53:20.630Z,1019.91
2018-04-17T05:55:16.608Z,1019.95
2018-04-17T05:56:17.080Z,1020.00
2018-04-17T05:58:12.520Z,1020.04
2018-04-17T05:59:12.496Z,1020.05
2018-04-17T06:01:09.465Z,1020.09
2018-04-17T06:02:08.458Z,1020.10
2018-04-17T06:04:04.940Z,1020.14
2018-04-17T06:05:04.414Z,1020.08
2018-04-17T06:07:00.849Z,1020.16
2018-04-17T06:08:00.869Z,1020.13
2018-04-17T06:09:56.784Z,1020.12
2018-04-17T06:10:56.300Z,1020.16
2018-04-17T06:12:52.240Z,1020.18
2018-04-17T06:13:53.227Z,1020.24
2018-04-17T06:15:51.217Z,1020.25
2018-04-17T06:16:48.205Z,1020.23
2018-04-17T06:18:45.143Z,1020.29
2018-04-17T06:19:44.102Z,1020.30
2018-04-17T06:21:40.073Z,1020.30
2018-04-17T06:22:40.051Z,1020.30
2018-04-17T06:24:36.509Z,1020.34
2018-04-17T06:25:35.999Z,1020.33
2018-04-17T06:27:31.956Z,1020.36
2018-04-17T06:28:31.932Z,1020.40
2018-04-17T06:30:28.914Z,1020.39
2018-04-17T06:31:27.881Z,1020.36
2018-04-17T06:33:24.856Z,1020.38
2018-04-17T06:34:23.855Z,1020.37
2018-04-17T06:36:19.811Z,1020.40
2018-04-17T06:38:36.270Z,1020.45
2018-04-17T06:39:35.733Z,1020.44
2018-04-17T06:41:31.648Z,1020.45
2018-04-17T06:42:31.670Z,1020.43
2018-04-17T06:44:27.612Z,1020.45
2018-04-17T06:45:27.599Z,1020.43
2018-04-17T06:47:24.099Z,1020.44
2018-04-17T06:48:23.529Z,1020.46
2018-04-17T06:50:19.993Z,1020.49
2018-04-17T06:51:19.993Z,1020.46
2018-04-17T06:53:15.427Z,1020.44
2018-04-17T06:54:15.427Z,1020.49
2018-04-17T06:56:11.392Z,1020.49
2018-04-17T06:57:11.894Z,1020.53
2018-04-17T06:59:07.343Z,1020.56
2018-04-17T07:00:07.829Z,1020.51
2018-04-17T07:02:04.246Z,1020.51
2018-04-17T07:03:03.264Z,1020.49
2018-04-17T07:05:01.225Z,1020.55
2018-04-17T07:06:01.198Z,1020.52
2018-04-17T07:07:58.143Z,1020.58
2018-04-17T07:08:57.126Z,1020.59
2018-04-17T07:10:53.067Z,1020.61
2018-04-17T07:11:53.060Z,1020.59
2018-04-17T07:13:49.529Z,1020.64
2018-04-17T07:14:49.510Z,1020.65
2018-04-17T07:16:44.959Z,1020.64
2018-04-17T07:17:45.472Z,1020.64
2018-04-17T07:19:40.881Z,1020.60
2018-04-17T07:20:40.893Z,1020.60
2018-04-17T07:22:37.372Z,1020.65
2018-04-17T07:23:37.388Z,1020.67
2018-04-17T07:25:33.291Z,1020.70
2018-04-17T07:26:32.772Z,1020.69
2018-04-17T07:28:29.746Z,1020.75
2018-04-17T07:29:28.777Z,1020.74
2018-04-17T07:31:24.711Z,1020.75
2018-04-17T07:32:25.180Z,1020.66
2018-04-17T07:34:21.141Z,1020.72
2018-04-17T07:35:20.633Z,1020.74
2018-04-17T07:37:17.580Z,1020.75
2018-04-17T07:38:16.558Z,1020.79
2018-04-17T07:40:13.013Z,1020.79
2018-04-17T07:41:12.514Z,1020.81
2018-04-17T07:43:08.456Z,1020.84
2018-04-17T07:44:08.459Z,1020.83
2018-04-17T07:46:05.419Z,1020.82
2018-04-17T07:47:04.459Z,1020.87
2018-04-17T07:49:01.414Z,1020.85
2018-04-17T07:50:00.369Z,1020.86
2018-04-17T07:51:56.318Z,1020.87
2018-04-17T07:52:56.820Z,1020.86
2018-04-17T07:54:52.285Z,1020.89
2018-04-17T07:55:53.289Z,1020.91
2018-04-17T07:57:49.260Z,1020.94
2018-04-17T07:58:48.740Z,1020.94
2018-04-17T08:00:44.206Z,1020.97
2018-04-17T08:01:44.181Z,1020.95
2018-04-17T08:03:40.652Z,1020.99
2018-04-17T08:04:40.634Z,1020.91
2018-04-17T08:06:37.095Z,1020.98
2018-04-17T08:07:36.076Z,1020.98
2018-04-17T08:09:32.049Z,1020.97
2018-04-17T08:10:32.550Z,1021.00
2018-04-17T08:12:27.971Z,1021.01
2018-04-17T08:13:27.942Z,1020.98
2018-04-17T08:15:24.404Z,1021.02
2018-04-17T08:16:23.923Z,1021.05
2018-04-17T08:18:20.356Z,1021.09
2018-04-17T08:19:19.854Z,1021.13
2018-04-17T08:21:16.317Z,1021.14
2018-04-17T08:22:16.381Z,1021.16
2018-04-17T08:24:11.785Z,1021.16
2018-04-17T08:25:11.779Z,1021.18
2018-04-17T08:27:08.264Z,1021.17
2018-04-17T08:28:08.209Z,1021.18
2018-04-17T08:30:03.677Z,1021.21
2018-04-17T08:31:04.169Z,1021.16
2018-04-17T08:33:00.622Z,1021.14
2018-04-17T08:33:59.610Z,1021.10
2018-04-17T08:35:55.592Z,1021.08
2018-04-17T08:36:55.568Z,1021.09
2018-04-17T08:38:51.514Z,1021.12
2018-04-17T08:39:49.979Z,1021.09
2018-04-17T08:41:45.946Z,1021.13
2018-04-17T08:42:45.960Z,1021.15
2018-04-17T08:44:41.891Z,1021.14
2018-04-17T08:45:41.882Z,1021.19
2018-04-17T08:47:36.329Z,1021.15
2018-04-17T08:48:36.842Z,1021.18
2018-04-17T08:50:32.314Z,1021.21
2018-04-17T08:51:32.279Z,1021.20
2018-04-17T08:53:28.754Z,1021.13
2018-04-17T08:54:28.282Z,1021.13
2018-04-17T08:56:24.185Z,1021.14
2018-04-17T08:57:24.688Z,1021.11
2018-04-17T08:59:21.140Z,1021.02
2018-04-17T09:00:20.640Z,1021.08
2018-04-17T09:02:16.090Z,1021.03
2018-04-17T09:03:16.082Z,1020.97
2018-04-17T09:05:12.045Z,1020.91
2018-04-17T09:06:12.020Z,1020.94
2018-04-17T09:08:08.508Z,1020.92
2018-04-17T09:09:07.967Z,1020.93
2018-04-17T09:11:04.451Z,1020.90
2018-04-17T09:12:03.932Z,1020.88
2018-04-17T09:13:59.923Z,1020.89
2018-04-17T09:14:59.888Z,1020.88
2018-04-17T09:16:55.852Z,1020.95
2018-04-17T09:17:55.852Z,1020.89
2018-04-17T09:19:53.764Z,1020.96
2018-04-17T09:20:54.301Z,1020.96
2018-04-17T09:22:52.744Z,1020.94
2018-04-17T09:23:51.929Z,1020.99
2018-04-17T09:25:48.342Z,1021.01
2018-04-17T09:26:47.825Z,1021.02
2018-04-17T09:28:44.292Z,1020.97
2018-04-17T09:29:43.785Z,1020.96
2018-04-17T09:31:41.228Z,1020.90
2018-04-17T09:32:39.710Z,1020.90
2018-04-17T09:34:35.715Z,1020.88
2018-04-17T09:35:35.705Z,1020.80
2018-04-17T09:37:32.662Z,1020.86
2018-04-17T09:38:32.651Z,1020.87
2018-04-17T09:40:28.614Z,1020.91
2018-04-17T09:41:28.115Z,1020.89
2018-04-17T09:43:23.615Z,1020.91
2018-04-17T09:44:23.557Z,1020.95
2018-04-17T09:46:19.551Z,1020.93
2018-04-17T09:47:19.518Z,1020.97
2018-04-17T09:49:15.490Z,1020.93
2018-04-17T09:50:15.430Z,1020.92
2018-04-17T09:52:12.411Z,1020.92
2018-04-17T09:53:11.895Z,1020.93
2018-04-17T09:55:07.876Z,1020.94
2018-04-17T09:56:07.375Z,1020.90
2018-04-17T09:58:03.396Z,1020.91
2018-04-17T09:59:03.375Z,1020.93
2018-04-17T10:01:00.349Z,1020.92
2018-04-17T10:02:00.351Z,1020.95
2018-04-17T10:03:56.818Z,1020.92
2018-04-17T10:04:56.820Z,1020.85
2018-04-17T10:06:50.777Z,1020.85
2018-04-17T10:07:50.780Z,1020.86
2018-04-17T10:09:44.740Z,1020.83
2018-04-17T10:10:45.152Z,1020.84
2018-04-17T10:12:40.217Z,1020.86
2018-04-17T10:13:40.221Z,1020.85
2018-04-17T10:15:37.179Z,1020.83
2018-04-17T10:16:36.184Z,1020.83
2018-04-17T10:18:32.190Z,1020.79
2018-04-17T10:19:32.151Z,1020.80
2018-04-17T10:21:28.613Z,1020.78
2018-04-17T10:22:28.627Z,1020.73
2018-04-17T10:24:24.590Z,1020.74
2018-04-17T10:25:24.066Z,1020.68
2018-04-17T10:28:53.876Z,1020.68
2018-04-17T10:29:53.861Z,1020.65
2018-04-17T10:31:50.791Z,1020.67
2018-04-17T10:32:50.797Z,1020.69
2018-04-17T10:34:45.765Z,1020.69
2018-04-17T10:35:45.760Z,1020.70
2018-04-17T10:37:41.730Z,1020.70
2018-04-17T10:38:42.727Z,1020.71
2018-04-17T10:40:38.689Z,1020.64
2018-04-17T10:41:38.710Z,1020.60
2018-04-17T10:43:34.195Z,1020.61
2018-04-17T10:44:33.661Z,1020.65
2018-04-17T10:46:29.669Z,1020.61
2018-04-17T10:47:29.618Z,1020.61
2018-04-17T10:49:25.077Z,1020.58
2018-04-17T10:50:24.038Z,1020.57
2018-04-17T10:52:20.018Z,1020.61
2018-04-17T10:53:19.992Z,1020.58
2018-04-17T10:55:15.465Z,1020.53
2018-04-17T10:56:14.459Z,1020.53
2018-04-17T10:58:11.418Z,1020.56
2018-04-17T10:59:10.439Z,1020.59
2018-04-17T11:01:06.367Z,1020.59
2018-04-17T11:02:06.379Z,1020.55
2018-04-17T11:04:02.419Z,1020.54
2018-04-17T11:05:02.380Z,1020.56
2018-04-17T11:06:59.252Z,1020.44
2018-04-17T11:07:58.830Z,1020.46
2018-04-17T11:09:54.796Z,1020.49
2018-04-17T11:10:54.805Z,1020.54
2018-04-17T11:12:48.739Z,1020.48
2018-04-17T11:13:49.234Z,1020.45
2018-04-17T11:15:43.194Z,1020.44
2018-04-17T11:16:44.181Z,1020.52
2018-04-17T11:18:39.156Z,1020.48
2018-04-17T11:19:39.161Z,1020.45
2018-04-17T11:21:35.106Z,1020.39
2018-04-17T11:22:35.123Z,1020.37
2018-04-17T11:24:30.581Z,1020.33
2018-04-17T11:25:30.590Z,1020.37
2018-04-17T11:27:24.576Z,1020.33
2018-04-17T11:28:24.050Z,1020.35
2018-04-17T11:30:19.002Z,1020.32
2018-04-17T11:31:19.011Z,1020.34
2018-04-17T11:33:12.960Z,1020.31
2018-04-17T11:34:12.966Z,1020.27
2018-04-17T11:36:08.430Z,1020.32
2018-04-17T11:37:07.400Z,1020.33
2018-04-17T11:39:03.870Z,1020.34
2018-04-17T11:40:03.328Z,1020.34
2018-04-17T11:41:59.303Z,1020.38
2018-04-17T11:42:59.293Z,1020.39
2018-04-17T11:44:55.747Z,1020.41
2018-04-17T11:45:55.236Z,1020.43
2018-04-17T11:47:50.705Z,1020.47
2018-04-17T11:48:49.704Z,1020.46
2018-04-17T11:50:46.601Z,1020.48
2018-04-17T11:51:46.170Z,1020.48
2018-04-17T11:53:41.130Z,1020.47
2018-04-17T11:54:40.640Z,1020.46
2018-04-17T11:56:36.082Z,1020.41
2018-04-17T11:57:36.101Z,1020.42
2018-04-17T11:59:29.479Z,1020.45
2018-04-17T12:00:29.517Z,1020.48
2018-04-17T12:02:26.970Z,1020.46
2018-04-17T12:03:25.462Z,1020.49
2018-04-17T12:05:23.409Z,1020.50
2018-04-17T12:06:21.918Z,1020.47
2018-04-17T12:08:15.894Z,1020.45
2018-04-17T12:09:16.881Z,1020.38
2018-04-17T12:11:13.605Z,1020.35
2018-04-17T12:12:13.298Z,1020.34
2018-04-17T12:14:06.421Z,1020.34
2018-04-17T12:15:06.902Z,1020.33
2018-04-17T12:17:02.380Z,1020.32
2018-04-17T12:18:02.365Z,1020.35
2018-04-17T12:19:56.339Z,1020.35
2018-04-17T12:20:55.810Z,1020.38
2018-04-17T12:22:55.275Z,1020.36
2018-04-17T12:23:54.784Z,1020.41
2018-04-17T12:25:50.421Z,1020.40
2018-04-17T12:26:49.851Z,1020.40
2018-04-17T12:28:44.285Z,1020.42
2018-04-17T12:29:44.291Z,1020.38
2018-04-17T12:31:40.262Z,1020.40
2018-04-17T12:32:40.275Z,1020.36
2018-04-17T12:34:37.252Z,1020.40
2018-04-17T12:35:36.220Z,1020.42
2018-04-17T12:37:32.168Z,1020.35
2018-04-17T12:38:32.679Z,1020.41
2018-04-17T12:40:26.163Z,1020.32
2018-04-17T12:41:25.712Z,1020.34
2018-04-17T12:43:20.597Z,1020.36
2018-04-17T12:44:20.109Z,1020.35
2018-04-17T12:46:17.086Z,1020.30
2018-04-17T12:47:16.559Z,1020.26
2018-04-17T12:49:12.515Z,1020.24
2018-04-17T12:50:11.988Z,1020.23
2018-04-17T12:52:06.467Z,1020.23
2018-04-17T12:53:06.485Z,1020.23
2018-04-17T12:55:00.908Z,1020.20
2018-04-17T12:56:00.910Z,1020.18
2018-04-17T12:57:55.401Z,1020.15
2018-04-17T12:58:55.380Z,1020.10
2018-04-17T13:00:49.889Z,1020.05
2018-04-17T13:01:49.850Z,1020.05
2018-04-17T13:03:44.827Z,1020.04
2018-04-17T13:04:45.314Z,1020.07
2018-04-17T13:06:39.217Z,1020.11
2018-04-17T13:07:37.784Z,1020.13
2018-04-17T13:09:32.744Z,1020.12
2018-04-17T13:10:32.768Z,1020.12
2018-04-17T13:12:31.711Z,1020.19
2018-04-17T13:13:31.189Z,1020.20
2018-04-17T13:15:28.262Z,1020.22
2018-04-17T13:16:26.288Z,1020.19
2018-04-17T13:18:22.271Z,1020.29
2018-04-17T13:19:22.233Z,1020.30
2018-04-17T13:21:17.215Z,1020.29
2018-04-17T13:22:16.709Z,1020.26
2018-04-17T13:24:13.197Z,1020.21
2018-04-17T13:25:12.671Z,1020.21
2018-04-17T13:27:07.167Z,1020.22
2018-04-17T13:28:07.157Z,1020.21
2018-04-17T13:30:02.679Z,1020.23
2018-04-17T13:31:02.123Z,1020.24
2018-04-17T13:32:56.089Z,1020.21
2018-04-17T13:33:56.595Z,1020.22
2018-04-17T13:35:52.055Z,1020.18
2018-04-17T13:36:52.050Z,1020.20
2018-04-17T13:38:48.024Z,1020.19
2018-04-17T13:39:47.985Z,1020.18
2018-04-17T13:41:44.461Z,1020.23
2018-04-17T13:42:43.932Z,1020.17
2018-04-17T13:44:39.933Z,1020.18
2018-04-17T13:45:39.936Z,1020.12
2018-04-17T13:47:35.928Z,1020.16
2018-04-17T13:48:36.400Z,1020.15
2018-04-17T13:50:30.371Z,1020.11
2018-04-17T13:51:31.296Z,1020.12
2018-04-17T13:53:24.846Z,1020.11
2018-04-17T13:54:26.266Z,1020.07
2018-04-17T13:56:24.299Z,1020.04
2018-04-17T13:57:22.955Z,1020.02
2018-04-17T13:59:19.444Z,1019.91
2018-04-17T14:00:18.900Z,1019.92
2018-04-17T14:02:14.883Z,1019.92
2018-04-17T14:03:14.865Z,1019.90
2018-04-17T14:05:11.320Z,1019.87
2018-04-17T14:06:10.826Z,1019.86
2018-04-17T14:08:07.293Z,1019.88
2018-04-17T14:09:06.783Z,1019.94
2018-04-17T14:11:03.755Z,1019.93
2018-04-17T14:12:02.771Z,1019.90
2018-04-17T14:13:59.248Z,1019.94
2018-04-17T14:14:59.733Z,1019.94
2018-04-17T14:16:54.737Z,1019.89
2018-04-17T14:17:55.205Z,1019.89
2018-04-17T14:19:50.693Z,1019.83
2018-04-17T14:20:51.168Z,1019.84
2018-04-17T14:22:46.167Z,1019.85
2018-04-17T14:23:46.144Z,1019.86
2018-04-17T14:25:42.106Z,1019.88
2018-04-17T14:26:41.241Z,1019.91
2018-04-17T14:28:38.085Z,1019.93
2018-04-17T14:29:37.048Z,1019.96
2018-04-17T14:31:33.010Z,1019.97
2018-04-17T14:32:33.013Z,1019.95
2018-04-17T14:34:28.982Z,1019.96
2018-04-17T14:35:29.000Z,1019.95
2018-04-17T14:37:25.957Z,1019.99
2018-04-17T14:38:24.957Z,1020.00
2018-04-17T14:40:21.434Z,1020.00
2018-04-17T14:41:21.860Z,1020.02
2018-04-17T14:43:17.398Z,1020.04
2018-04-17T14:44:17.396Z,1020.03
2018-04-17T14:46:12.862Z,1020.04
2018-04-17T14:47:12.889Z,1020.05
2018-04-17T14:49:08.840Z,1020.01
2018-04-17T14:50:08.808Z,1020.03
2018-04-17T14:52:03.771Z,1020.06
2018-04-17T14:53:03.271Z,1020.09
2018-04-17T14:54:56.726Z,1020.09
2018-04-17T14:55:57.660Z,1020.14
2018-04-17T14:57:52.719Z,1020.11
2018-04-17T14:58:53.191Z,1020.12
2018-04-17T15:00:46.167Z,1020.09
2018-04-17T15:01:46.167Z,1020.06
2018-04-17T15:03:40.638Z,1020.11
2018-04-17T15:04:41.144Z,1020.12
2018-04-17T15:06:37.103Z,1020.12
2018-04-17T15:07:36.590Z,1020.13
2018-04-17T15:09:32.532Z,1020.15
2018-04-17T15:10:32.533Z,1020.14
2018-04-17T15:12:28.001Z,1020.11
2018-04-17T15:13:26.976Z,1020.15
2018-04-17T15:15:20.996Z,1020.10
2018-04-17T15:16:20.464Z,1020.11
2018-04-17T15:18:15.920Z,1020.08
2018-04-17T15:19:14.939Z,1020.09
2018-04-17T15:21:10.428Z,1020.07
2018-04-17T15:22:09.425Z,1020.05
2018-04-17T15:24:04.884Z,1020.05
2018-04-17T15:25:03.900Z,1020.02
2018-04-17T15:26:59.363Z,1020.04
2018-04-17T15:27:58.361Z,1020.02
2018-04-17T15:29:54.341Z,1019.98
2018-04-17T15:30:55.343Z,1020.01
2018-04-17T15:32:50.306Z,1020.02
2018-04-17T15:33:50.289Z,1020.01
2018-04-17T15:35:44.755Z,1020.03
2018-04-17T15:36:43.759Z,1020.04
2018-04-17T15:38:37.184Z,1020.04
2018-04-17T15:39:37.196Z,1020.05
2018-04-17T15:41:31.671Z,1020.08
2018-04-17T15:42:32.152Z,1020.10
2018-04-17T15:44:26.121Z,1020.11
2018-04-17T15:45:26.633Z,1020.18
2018-04-17T15:47:23.091Z,1020.19
2018-04-17T15:48:20.585Z,1020.21
2018-04-17T15:50:17.062Z,1020.23
2018-04-17T15:51:17.540Z,1020.20
2018-04-17T15:53:12.508Z,1020.16
2018-04-17T15:54:12.017Z,1020.20
2018-04-17T15:56:08.059Z,1020.17
2018-04-17T15:57:07.028Z,1020.20
2018-04-17T15:59:00.452Z,1020.21
2018-04-17T16:00:01.420Z,1020.19
2018-04-17T16:01:56.431Z,1020.20
2018-04-17T16:02:56.416Z,1020.19
2018-04-17T16:04:50.901Z,1020.19
2018-04-17T16:05:50.870Z,1020.21
2018-04-17T16:07:44.347Z,1020.24
2018-04-17T16:08:44.833Z,1020.27
2018-04-17T16:10:38.814Z,1020.24
2018-04-17T16:11:38.801Z,1020.27
2018-04-17T16:13:32.257Z,1020.29
2018-04-17T16:14:32.772Z,1020.29
2018-04-17T16:16:25.738Z,1020.30
2018-04-17T16:17:26.247Z,1020.29
2018-04-17T16:19:19.159Z,1020.25
2018-04-17T16:20:19.162Z,1020.23
2018-04-17T16:22:15.142Z,1020.23
2018-04-17T16:23:15.155Z,1020.22
2018-04-17T16:25:11.628Z,1020.18
2018-04-17T16:26:11.134Z,1020.19
2018-04-17T16:28:05.595Z,1020.21
2018-04-17T16:29:05.597Z,1020.26
2018-04-17T16:31:03.575Z,1020.24
2018-04-17T16:32:01.705Z,1020.20
2018-04-17T16:33:57.689Z,1020.16
2018-04-17T16:36:12.133Z,1020.17
2018-04-17T16:37:12.162Z,1020.19
2018-04-17T16:39:08.130Z,1020.19
2018-04-17T16:40:08.635Z,1020.14
2018-04-17T16:42:04.574Z,1020.16
2018-04-17T16:43:05.083Z,1020.13
2018-04-17T16:45:01.537Z,1020.16
2018-04-17T16:46:01.043Z,1020.16
2018-04-17T16:47:58.147Z,1020.17
2018-04-17T16:48:58.165Z,1020.18
2018-04-17T16:50:53.151Z,1020.21
2018-04-17T16:51:53.618Z,1020.17
2018-04-17T16:53:49.156Z,1020.18
2018-04-17T16:54:48.140Z,1020.21
2018-04-17T16:56:43.132Z,1020.23
2018-04-17T16:57:43.140Z,1020.23
2018-04-17T16:59:40.611Z,1020.26
2018-04-17T17:00:39.142Z,1020.20
2018-04-17T17:02:34.605Z,1020.21
2018-04-17T17:03:33.601Z,1020.28
2018-04-17T17:05:31.076Z,1020.25
2018-04-17T17:06:30.570Z,1020.24
2018-04-17T17:08:26.098Z,1020.30
2018-04-17T17:09:25.609Z,1020.28
2018-04-17T17:11:21.579Z,1020.32
2018-04-17T17:12:22.502Z,1020.30
2018-04-17T17:14:17.030Z,1020.43
2018-04-17T17:15:16.042Z,1020.39
2018-04-17T17:17:13.022Z,1020.50
2018-04-17T17:18:12.049Z,1020.47
2018-04-17T17:20:08.495Z,1020.49
2018-04-17T17:21:08.003Z,1020.49
2018-04-17T17:23:02.473Z,1020.52
2018-04-17T17:24:03.453Z,1020.50
2018-04-17T17:25:56.915Z,1020.56
2018-04-17T17:26:56.912Z,1020.60
2018-04-17T17:28:52.822Z,1020.64
2018-04-17T17:29:53.382Z,1020.63
2018-04-17T17:31:49.735Z,1020.63
2018-04-17T17:32:49.819Z,1020.60
2018-04-17T17:34:42.802Z,1020.62
2018-04-17T17:35:42.388Z,1020.61
2018-04-17T17:37:38.356Z,1020.65
2018-04-17T17:38:39.343Z,1020.62
2018-04-17T17:40:35.264Z,1020.66
2018-04-17T17:42:50.295Z,1020.68
2018-04-17T17:43:51.216Z,1020.67
2018-04-17T17:45:49.265Z,1020.60